Aztec, NM (87410)

7:03 PM MDT on September 17, 2014 (GMT -0600)
Aztec, NM 87410 | Change Station
CLOSE
Current Station
Personal Weather Station
Location: Aztec, NM
Elevation: 5682 ft
Nearby Weather Stations

Elev 5682 ft 36.82 °N, 107.99 °W | Updated 8 minutes ago

Overcast
Overcast
62.3 °F
Feels Like 62.3 °F
N
7.8
Wind Variable Wind from NNE

Today
High -- | Low -- °F
--% Chance of Precip.
Yesterday
High -- | Low -- °F
Precip. -- in
6:55 AM 7:16 PM
Waning Crescent, 31% visible
Pressure 29.94 in
Visibility 10.0 miles
Clouds Few 7000 ft
Scattered Clouds 11000 ft
Dew Point 44 °F
Humidity 52%
Rainfall 0.00 in
Snow Depth 2 in , 0 in , 19 in
UV 0 out of 12
Pollen 6.30 out of 12
Air Quality Not available.
Flu Activity Not available.
METAR KFMN 180053Z 05010G20KT 10SM FEW070 SCT110 22/07 A3008 RMK AO2 PK WND 05026/0025 SLP136 T02170072

More Conditions Fewer Conditions

Pressure 29.94 in
Visibility 10.0 miles
Clouds Few 7000 ft
Scattered Clouds 11000 ft
Dew Point 44 °F
Humidity 52%
Rainfall 0.00 in
Snow Depth 2 in , 0 in , 19 in
UV 0 out of 12
Pollen 6.30 out of 12
Air Quality Not available.
Flu Activity Not available.
METAR KFMN 180053Z 05010G20KT 10SM FEW070 SCT110 22/07 A3008 RMK AO2 PK WND 05026/0025 SLP136 T02170072

More Conditions Fewer Conditions

Nowcast | as of 6:25 PM MDT on September 17, 2014

A cluster of showers and embedded isolated thunderstorms across central and west Rio Arriba County will should slowly diminish through the early evening hours. Other isolated showers in far northern Taos County should do the same. Both precipitation areas will drift mostly to the southwest around 15 mph. Rainfall amounts will only be a few hundredths to as much as a quarter of an inch. Some likely affected locales include largely open areas northeast through northwest of...and including...Lindrith.

×

10-Day Weather Forecast

Almanac

Astronomy

Sep. 17, 2014 Rise Set
Actual Time 6:55 AM MDT 7:16 PM MDT
Civil Twilight 6:29 AM MDT 7:42 PM MDT
Nautical Twilight 5:59 AM MDT 8:12 PM MDT
Astronomical Twilight 5:28 AM MDT 8:43 PM MDT
Moon 1:04 AM MDT (9/17) 3:22 PM MDT (9/17)
Length of Visible Light 13h 12m
Length of Day
12h 20m
Tomorrow will be 2m 19s shorter.
Waning Crescent, 31% of the Moon is Illuminated
Today
Waning Crescent
Sep 24
New
Oct 1
First Quarter
Oct 8
Full
Oct 15
Last Quarter

Today's Extremes

State Highs State Lows

Community

WunderPhotos

Upload Photos

1,754,241 photos uploaded!

Nearby

Snow Depth

Station Depth Elevation
Wesner Springs 2 in 11120 ft
Tolby 0 in 10180 ft
Silver Creek Divide 19 in 9000 ft
Santa Fe 0 in 11445 ft
North Costilla 1 in 10600 ft

Earthquake Activity

City Distance Mag. Time & Date
No recent earthquake activity has been reported nearby.
Minimum magnitude displayed is 2.5.

Coastal Water Temperatures

Place Temperature
No Stations Reporting

Nearby Weather Stations